Time;durP1;ratioP1;P1;durP2;ratioP2;P2;SDS_P1;SDS_P2;PMS_P1;PMS_P2;Temp;Humidity;BMP_temperature;BMP_pressure;BME280_temperature;BME280_humidity;BME280_pressure;Samples;Min_cycle;Max_cycle;Signal;HPM_P1;HPM_P2
2022/07/25 00:01:21;;;;;;;3.17;2.10;;;;;;;;;;5041069;28;92090;-50
2022/07/25 00:03:50;;;;;;;3.40;2.17;;;;;;;;;;5040289;28;95034;-50
2022/07/25 00:06:19;;;;;;;3.10;1.87;;;;;;;;;;5041075;28;93646;-51
2022/07/25 00:08:48;;;;;;;3.50;1.77;;;;;;;;;;5041583;28;92091;-51
2022/07/25 00:11:17;;;;;;;2.03;1.83;;;;;;;;;;5041344;28;92029;-51
2022/07/25 00:13:45;;;;;;;3.50;2.40;;;;;;;;;;5041306;28;93349;-50
2022/07/25 00:16:13;;;;;;;2.70;1.80;;;;;;;;;;5042044;28;92999;-51
2022/07/25 00:18:42;;;;;;;2.47;2.13;;;;;;;;;;5042125;28;91934;-50
2022/07/25 00:21:10;;;;;;;4.20;2.17;;;;;;;;;;5042645;28;91403;-50
2022/07/25 00:23:38;;;;;;;2.03;1.83;;;;;;;;;;5041485;28;94434;-51
2022/07/25 00:26:08;;;;;;;2.60;1.80;;;;;;;;;;5040916;28;94398;-51
2022/07/25 00:28:36;;;;;;;3.50;1.93;;;;;;;;;;5041603;28;92978;-50
2022/07/25 00:31:04;;;;;;;2.07;1.50;;;;;;;;;;5041547;28;92084;-50
2022/07/25 00:33:33;;;;;;;2.10;1.60;;;;;;;;;;5041598;28;93105;-50
2022/07/25 00:36:01;;;;;;;2.77;1.70;;;;;;;;;;5040989;28;93034;-50
2022/07/25 00:38:29;;;;;;;1.70;1.60;;;;;;;;;;5042208;28;92097;-51
2022/07/25 00:40:58;;;;;;;2.10;1.53;;;;;;;;;;5041087;28;92094;-48
2022/07/25 00:43:27;;;;;;;2.30;1.40;;;;;;;;;;5041348;28;93167;-51
2022/07/25 00:45:57;;;;;;;3.40;1.57;;;;;;;;;;5041612;28;92880;-51
2022/07/25 00:48:26;;;;;;;1.47;1.37;;;;;;;;;;5041969;28;92007;-50
2022/07/25 00:50:55;;;;;;;2.97;2.00;;;;;;;;;;5041703;28;92058;-51
2022/07/25 00:53:23;;;;;;;2.00;1.70;;;;;;;;;;5041297;28;95338;-51
2022/07/25 00:55:51;;;;;;;1.77;1.67;;;;;;;;;;5041229;28;94872;-50
2022/07/25 00:58:20;;;;;;;1.83;1.47;;;;;;;;;;5042019;28;92257;-51
2022/07/25 01:00:49;;;;;;;2.10;1.40;;;;;;;;;;5041334;28;91974;-51
2022/07/25 01:03:18;;;;;;;1.87;1.43;;;;;;;;;;5041414;28;94177;-51
2022/07/25 01:05:46;;;;;;;2.40;1.63;;;;;;;;;;5041206;28;93741;-50
2022/07/25 01:08:20;;;;;;;2.67;1.70;;;;;;;;;;5040819;28;93275;-50
2022/07/25 01:10:49;;;;;;;1.50;1.30;;;;;;;;;;5040647;28;91452;-50
2022/07/25 01:13:17;;;;;;;2.33;1.73;;;;;;;;;;5041226;28;93191;-51
2022/07/25 01:15:49;;;;;;;2.00;1.37;;;;;;;;;;5041311;28;93702;-50
2022/07/25 01:18:17;;;;;;;1.33;1.20;;;;;;;;;;5040850;28;93433;-51
2022/07/25 01:20:47;;;;;;;1.57;1.40;;;;;;;;;;5041338;28;91909;-51
2022/07/25 01:23:15;;;;;;;2.27;1.30;;;;;;;;;;5040757;28;94111;-50
2022/07/25 01:25:44;;;;;;;3.67;1.80;;;;;;;;;;5040268;28;92862;-50
2022/07/25 01:28:12;;;;;;;1.30;1.20;;;;;;;;;;5040090;28;92146;-51
2022/07/25 01:30:41;;;;;;;2.03;1.50;;;;;;;;;;5039250;28;92063;-51
2022/07/25 01:33:09;;;;;;;1.77;1.40;;;;;;;;;;5039501;28;92894;-51
2022/07/25 01:35:37;;;;;;;2.37;1.47;;;;;;;;;;5040398;28;92791;-50
2022/07/25 01:38:12;;;;;;;1.57;1.47;;;;;;;;;;5040244;28;92153;-50
2022/07/25 01:40:40;;;;;;;1.40;1.13;;;;;;;;;;5039674;28;92086;-50
2022/07/25 01:43:08;;;;;;;1.80;1.33;;;;;;;;;;5039054;28;95153;-51
2022/07/25 01:45:37;;;;;;;2.50;1.70;;;;;;;;;;5039556;28;93663;-50
2022/07/25 01:48:05;;;;;;;1.90;1.60;;;;;;;;;;5039909;28;92066;-51
2022/07/25 01:50:33;;;;;;;2.23;1.60;;;;;;;;;;5039773;28;92056;-51
2022/07/25 01:53:02;;;;;;;1.73;1.43;;;;;;;;;;5038867;28;94170;-51
2022/07/25 01:55:31;;;;;;;2.00;1.40;;;;;;;;;;5038401;28;94092;-50
2022/07/25 01:58:00;;;;;;;1.40;1.30;;;;;;;;;;5040520;28;92227;-50
2022/07/25 02:00:28;;;;;;;1.83;1.43;;;;;;;;;;5040571;28;91373;-51
2022/07/25 02:05:39;;;;;;;1.90;1.50;;;;;;;;;;5032783;28;93943;-51
2022/07/25 02:08:07;;;;;;;1.73;1.30;;;;;;;;;;5040236;28;92918;-50
2022/07/25 02:10:39;;;;;;;1.73;1.53;;;;;;;;;;5040339;28;92923;-51
2022/07/25 02:13:08;;;;;;;1.83;1.60;;;;;;;;;;5039819;28;93192;-50
2022/07/25 02:15:36;;;;;;;2.40;1.70;;;;;;;;;;5040392;28;92889;-51
2022/07/25 02:18:04;;;;;;;2.60;1.40;;;;;;;;;;5040568;28;92113;-51
2022/07/25 02:20:33;;;;;;;1.53;1.27;;;;;;;;;;5040390;27;92098;-51
2022/07/25 02:23:02;;;;;;;4.10;1.77;;;;;;;;;;5039959;28;93292;-48
2022/07/25 02:25:30;;;;;;;2.77;1.70;;;;;;;;;;5039959;28;93047;-50
2022/07/25 02:27:59;;;;;;;2.30;2.10;;;;;;;;;;5040421;28;92061;-51
2022/07/25 02:30:28;;;;;;;2.47;1.40;;;;;;;;;;5040110;28;92185;-49
2022/07/25 02:32:56;;;;;;;1.67;1.40;;;;;;;;;;5038781;28;93053;-48
2022/07/25 02:35:25;;;;;;;3.10;1.53;;;;;;;;;;5031765;28;94891;-49
2022/07/25 02:37:53;;;;;;;3.70;2.13;;;;;;;;;;5040339;28;92079;-49
2022/07/25 02:40:21;;;;;;;3.13;1.90;;;;;;;;;;5039931;28;92045;-51
2022/07/25 02:42:50;;;;;;;2.70;1.70;;;;;;;;;;5038947;28;93070;-50
2022/07/25 02:45:19;;;;;;;2.70;2.20;;;;;;;;;;5034284;28;93005;-49
2022/07/25 02:47:48;;;;;;;2.57;2.07;;;;;;;;;;5033768;28;91940;-49
2022/07/25 02:50:16;;;;;;;1.83;1.60;;;;;;;;;;5035290;28;91489;-49
2022/07/25 02:52:44;;;;;;;3.13;1.87;;;;;;;;;;5033668;28;93327;-49
2022/07/25 02:55:13;;;;;;;2.40;2.00;;;;;;;;;;5039558;28;93265;-49
2022/07/25 02:57:41;;;;;;;2.40;1.97;;;;;;;;;;5039087;28;93322;-48
2022/07/25 03:00:10;;;;;;;4.87;2.40;;;;;;;;;;5039567;28;91995;-51
2022/07/25 03:02:39;;;;;;;3.87;3.13;;;;;;;;;;5038892;28;93348;-50
2022/07/25 03:05:08;;;;;;;4.90;2.90;;;;;;;;;;5039490;28;93873;-50
2022/07/25 03:07:36;;;;;;;4.23;2.83;;;;;;;;;;5039629;28;91887;-48
2022/07/25 03:10:05;;;;;;;4.27;3.13;;;;;;;;;;5039151;28;92489;-48
2022/07/25 03:12:38;;;;;;;4.73;3.87;;;;;;;;;;5039099;28;92602;-49
2022/07/25 03:15:07;;;;;;;4.70;3.30;;;;;;;;;;5039525;28;94054;-48
2022/07/25 03:17:35;;;;;;;8.77;5.70;;;;;;;;;;5039646;28;92038;-48
2022/07/25 03:20:05;;;;;;;4.90;3.83;;;;;;;;;;5039270;28;92985;-49
2022/07/25 03:22:33;;;;;;;9.47;5.30;;;;;;;;;;5037877;28;94280;-49
2022/07/25 03:25:02;;;;;;;5.93;3.77;;;;;;;;;;5038248;28;94919;-48
2022/07/25 03:27:30;;;;;;;7.30;4.43;;;;;;;;;;5039011;28;92026;-49
2022/07/25 03:29:58;;;;;;;6.30;4.27;;;;;;;;;;5039621;28;92049;-50
2022/07/25 03:32:27;;;;;;;5.77;4.47;;;;;;;;;;5038112;28;93280;-50
2022/07/25 03:34:55;;;;;;;7.63;4.63;;;;;;;;;;5039071;28;93014;-50
2022/07/25 03:37:24;;;;;;;8.43;5.03;;;;;;;;;;5039232;28;92038;-48
2022/07/25 03:39:53;;;;;;;6.13;4.40;;;;;;;;;;5038398;28;91347;-48
2022/07/25 03:42:22;;;;;;;7.07;3.93;;;;;;;;;;5038449;28;93352;-50
2022/07/25 03:44:54;;;;;;;6.73;4.03;;;;;;;;;;5038285;28;93767;-49
2022/07/25 03:47:22;;;;;;;5.53;4.33;;;;;;;;;;5037474;28;93125;-51
2022/07/25 03:49:50;;;;;;;6.70;3.83;;;;;;;;;;5039053;28;92095;-49
2022/07/25 03:52:18;;;;;;;5.90;3.93;;;;;;;;;;5038518;28;93157;-49
2022/07/25 03:54:48;;;;;;;5.00;3.80;;;;;;;;;;5038759;28;92901;-48
2022/07/25 03:57:16;;;;;;;5.40;4.23;;;;;;;;;;5038908;28;92089;-48
2022/07/25 03:59:45;;;;;;;6.77;4.03;;;;;;;;;;5039038;28;92030;-49
2022/07/25 04:02:13;;;;;;;6.77;4.50;;;;;;;;;;5038132;28;93153;-51
2022/07/25 04:04:41;;;;;;;5.83;4.30;;;;;;;;;;5039142;28;92712;-49
2022/07/25 04:07:10;;;;;;;4.80;3.87;;;;;;;;;;5038741;28;92919;-48
2022/07/25 04:09:38;;;;;;;5.10;4.27;;;;;;;;;;5037268;28;92174;-48
2022/07/25 04:12:08;;;;;;;6.43;4.53;;;;;;;;;;5035266;28;94254;-49
2022/07/25 04:14:36;;;;;;;8.00;4.77;;;;;;;;;;5036806;28;93886;-49
2022/07/25 04:17:05;;;;;;;5.40;4.33;;;;;;;;;;5038572;28;92095;-49
2022/07/25 04:19:33;;;;;;;4.97;3.63;;;;;;;;;;5038759;28;92026;-51
2022/07/25 04:22:01;;;;;;;5.33;4.40;;;;;;;;;;5038087;28;93205;-48
2022/07/25 04:24:30;;;;;;;5.63;4.47;;;;;;;;;;5038372;28;92807;-50
2022/07/25 04:26:58;;;;;;;4.17;3.77;;;;;;;;;;5037865;28;92127;-48
2022/07/25 04:29:27;;;;;;;5.53;3.97;;;;;;;;;;5038607;28;91315;-49
2022/07/25 04:31:56;;;;;;;5.47;4.10;;;;;;;;;;5037099;28;94301;-49
2022/07/25 04:34:25;;;;;;;6.70;4.03;;;;;;;;;;5037310;28;92129;-48
2022/07/25 04:36:53;;;;;;;6.80;3.63;;;;;;;;;;5038098;28;92815;-51
2022/07/25 04:39:21;;;;;;;5.73;3.83;;;;;;;;;;5038652;28;91950;-51
2022/07/25 04:41:50;;;;;;;5.43;4.00;;;;;;;;;;5037562;28;94134;-48
2022/07/25 04:44:18;;;;;;;5.57;3.37;;;;;;;;;;5038632;27;92842;-48
2022/07/25 04:46:48;;;;;;;4.50;3.53;;;;;;;;;;5042010;28;92128;-48
2022/07/25 04:49:16;;;;;;;4.13;3.53;;;;;;;;;;5042045;28;91942;-49
2022/07/25 04:51:44;;;;;;;4.97;3.23;;;;;;;;;;5041582;28;94030;-49
2022/07/25 04:54:13;;;;;;;2.67;2.37;;;;;;;;;;5041593;28;92882;-48
2022/07/25 04:56:41;;;;;;;3.60;2.93;;;;;;;;;;5040820;28;92099;-48
2022/07/25 04:59:09;;;;;;;5.37;3.20;;;;;;;;;;5041594;28;91935;-48
2022/07/25 05:01:37;;;;;;;8.07;2.90;;;;;;;;;;5040198;28;95114;-48
2022/07/25 05:04:07;;;;;;;3.73;2.70;;;;;;;;;;5041014;28;94783;-49
2022/07/25 05:06:36;;;;;;;5.17;3.10;;;;;;;;;;5041686;28;92064;-50
2022/07/25 05:09:04;;;;;;;3.57;2.87;;;;;;;;;;5041158;28;92136;-50
2022/07/25 05:11:32;;;;;;;3.90;2.80;;;;;;;;;;5041049;28;95547;-50
2022/07/25 05:14:01;;;;;;;3.63;2.80;;;;;;;;;;5040685;28;92761;-51
2022/07/25 05:16:31;;;;;;;2.43;2.00;;;;;;;;;;5041015;28;92056;-50
2022/07/25 05:18:59;;;;;;;3.23;2.60;;;;;;;;;;5041436;28;91296;-51
2022/07/25 05:21:29;;;;;;;3.43;2.50;;;;;;;;;;5040858;28;94123;-50
2022/07/25 05:23:57;;;;;;;3.93;2.80;;;;;;;;;;5040577;28;92744;-48
2022/07/25 05:26:25;;;;;;;4.50;2.83;;;;;;;;;;5040586;28;93035;-49
2022/07/25 05:28:54;;;;;;;4.60;2.67;;;;;;;;;;5039681;28;92070;-49
2022/07/25 05:31:22;;;;;;;4.23;2.83;;;;;;;;;;5040474;28;93327;-48
2022/07/25 05:33:50;;;;;;;3.70;2.80;;;;;;;;;;5040757;28;94031;-48
2022/07/25 05:36:19;;;;;;;2.50;2.17;;;;;;;;;;5041175;28;92038;-50
2022/07/25 05:38:48;;;;;;;3.50;2.33;;;;;;;;;;5041436;28;91992;-50
2022/07/25 05:41:17;;;;;;;3.43;2.33;;;;;;;;;;5040801;28;93322;-49
2022/07/25 05:43:46;;;;;;;2.60;2.30;;;;;;;;;;5041000;28;92912;-48
2022/07/25 05:46:14;;;;;;;3.93;2.50;;;;;;;;;;5041221;28;92230;-49
2022/07/25 05:48:43;;;;;;;3.03;2.00;;;;;;;;;;5040761;28;92149;-49
2022/07/25 05:51:12;;;;;;;2.10;1.80;;;;;;;;;;5039932;28;94256;-51
2022/07/25 05:53:40;;;;;;;3.83;2.50;;;;;;;;;;5040581;28;94880;-49
2022/07/25 05:56:10;;;;;;;3.20;2.27;;;;;;;;;;5040368;27;92096;-49
2022/07/25 05:58:39;;;;;;;2.80;1.93;;;;;;;;;;5039720;28;92140;-49
2022/07/25 06:01:08;;;;;;;2.30;2.10;;;;;;;;;;5039983;28;94410;-49
2022/07/25 06:03:36;;;;;;;3.57;1.97;;;;;;;;;;5040152;28;92052;-49
2022/07/25 06:06:05;;;;;;;3.53;2.33;;;;;;;;;;5040604;28;92163;-48
2022/07/25 06:08:33;;;;;;;2.70;1.33;;;;;;;;;;5040344;28;91441;-49
2022/07/25 06:11:02;;;;;;;2.37;1.60;;;;;;;;;;5039690;28;94139;-49
2022/07/25 06:13:33;;;;;;;2.60;2.00;;;;;;;;;;5040024;28;93733;-49
2022/07/25 06:16:01;;;;;;;3.23;1.70;;;;;;;;;;5039836;28;93773;-49
2022/07/25 06:18:30;;;;;;;2.37;1.70;;;;;;;;;;5040301;28;92110;-50
2022/07/25 06:20:59;;;;;;;2.93;1.60;;;;;;;;;;5038602;28;92150;-49
2022/07/25 06:23:27;;;;;;;2.30;2.00;;;;;;;;;;5039949;28;92960;-49
2022/07/25 06:25:55;;;;;;;2.17;1.83;;;;;;;;;;5039709;28;92080;-49
2022/07/25 06:28:24;;;;;;;1.67;1.47;;;;;;;;;;5039978;28;91993;-50
2022/07/25 06:30:53;;;;;;;2.10;1.90;;;;;;;;;;5039261;28;94344;-49
2022/07/25 06:33:22;;;;;;;1.40;1.30;;;;;;;;;;5040109;28;93849;-49
2022/07/25 06:35:50;;;;;;;2.00;1.50;;;;;;;;;;5040217;28;92081;-49
2022/07/25 06:38:18;;;;;;;2.23;1.47;;;;;;;;;;5039896;28;92118;-49
2022/07/25 06:40:46;;;;;;;1.27;1.17;;;;;;;;;;5038989;28;94130;-48
2022/07/25 06:43:15;;;;;;;2.83;1.53;;;;;;;;;;5039408;28;94782;-49
2022/07/25 06:45:46;;;;;;;3.00;1.70;;;;;;;;;;5040058;28;91857;-49
2022/07/25 06:48:16;;;;;;;1.83;1.50;;;;;;;;;;5039722;28;91985;-49
2022/07/25 06:50:44;;;;;;;2.03;1.33;;;;;;;;;;5039167;28;93298;-49
2022/07/25 06:53:12;;;;;;;1.70;1.50;;;;;;;;;;5039332;28;92955;-49
2022/07/25 06:55:41;;;;;;;1.50;1.17;;;;;;;;;;5039314;28;91932;-49
2022/07/25 06:58:09;;;;;;;2.00;1.13;;;;;;;;;;5039624;28;91352;-49
2022/07/25 07:00:37;;;;;;;2.00;1.37;;;;;;;;;;5039114;28;94202;-49
2022/07/25 07:03:05;;;;;;;1.70;1.10;;;;;;;;;;5039520;28;93827;-49
2022/07/25 07:05:36;;;;;;;1.93;1.30;;;;;;;;;;5039199;28;93156;-49
2022/07/25 07:08:04;;;;;;;2.60;1.30;;;;;;;;;;5038804;28;92106;-49
2022/07/25 07:10:33;;;;;;;2.40;1.27;;;;;;;;;;5038947;28;93159;-49
2022/07/25 07:13:05;;;;;;;1.53;1.10;;;;;;;;;;5038919;28;92093;-49
2022/07/25 07:15:35;;;;;;;1.00;1.00;;;;;;;;;;5039517;28;92065;-49
2022/07/25 07:18:03;;;;;;;1.63;1.43;;;;;;;;;;5039279;28;92075;-49
2022/07/25 07:20:31;;;;;;;1.40;1.20;;;;;;;;;;5038941;28;93114;-49
2022/07/25 07:23:01;;;;;;;5.00;1.20;;;;;;;;;;5039378;28;93893;-49
2022/07/25 07:25:30;;;;;;;5.60;1.10;;;;;;;;;;5039179;28;91947;-49
2022/07/25 07:27:58;;;;;;;1.40;1.27;;;;;;;;;;5039315;28;91975;-49
2022/07/25 07:30:26;;;;;;;2.10;1.33;;;;;;;;;;5037934;28;94192;-49
2022/07/25 07:33:14;;;;;;;1.07;0.97;;;;;;;;;;5038313;28;93351;-49
2022/07/25 07:35:44;;;;;;;1.07;0.97;;;;;;;;;;5037849;28;92119;-49
2022/07/25 07:38:13;;;;;;;1.20;1.07;;;;;;;;;;5039499;28;92097;-48
2022/07/25 07:40:42;;;;;;;2.70;1.03;;;;;;;;;;5038376;28;92064;-48
2022/07/25 07:43:10;;;;;;;1.07;0.90;;;;;;;;;;5038492;28;92825;-48
2022/07/25 07:45:38;;;;;;;2.47;1.13;;;;;;;;;;5039229;28;92138;-51
2022/07/25 07:48:07;;;;;;;0.93;0.80;;;;;;;;;;5039263;28;91349;-50
2022/07/25 07:50:35;;;;;;;0.83;0.80;;;;;;;;;;5038600;28;93290;-48
2022/07/25 07:53:04;;;;;;;1.97;0.90;;;;;;;;;;5038852;28;93856;-48
2022/07/25 07:55:44;;;;;;;1.43;1.00;;;;;;;;;;5038076;28;92867;-50
2022/07/25 07:58:14;;;;;;;1.30;1.13;;;;;;;;;;5038805;28;92102;-48
2022/07/25 08:00:42;;;;;;;2.40;0.90;;;;;;;;;;5038593;28;93095;-48
2022/07/25 08:03:11;;;;;;;1.60;0.93;;;;;;;;;;5038676;28;93800;-48
2022/07/25 08:05:40;;;;;;;1.50;0.80;;;;;;;;;;5038752;28;92086;-50
2022/07/25 08:08:09;;;;;;;2.13;0.90;;;;;;;;;;5038809;28;92042;-51
2022/07/25 08:10:39;;;;;;;0.97;0.77;;;;;;;;;;5038168;28;93186;-48
2022/07/25 08:13:13;;;;;;;0.63;0.60;;;;;;;;;;5037626;28;94158;-48
2022/07/25 08:15:41;;;;;;;1.33;0.80;;;;;;;;;;5038324;28;91866;-50
2022/07/25 08:18:09;;;;;;;0.87;0.60;;;;;;;;;;5039140;28;92007;-49
2022/07/25 08:20:45;;;;;;;2.70;1.03;;;;;;;;;;5041247;28;95134;-49
2022/07/25 08:23:13;;;;;;;0.70;0.70;;;;;;;;;;5041735;28;94836;-49
2022/07/25 08:25:43;;;;;;;0.60;0.57;;;;;;;;;;5041928;28;92054;-49
2022/07/25 08:28:11;;;;;;;1.17;0.70;;;;;;;;;;5042133;28;92083;-49
2022/07/25 08:30:40;;;;;;;0.70;0.70;;;;;;;;;;5041175;28;94143;-49
2022/07/25 08:33:09;;;;;;;0.83;0.83;;;;;;;;;;5041332;28;92990;-49
2022/07/25 08:35:38;;;;;;;1.13;0.50;;;;;;;;;;5042558;28;91985;-49
2022/07/25 08:38:07;;;;;;;0.57;0.57;;;;;;;;;;5042236;28;91483;-49
2022/07/25 08:40:35;;;;;;;0.77;0.67;;;;;;;;;;5041156;28;92182;-49
2022/07/25 08:43:05;;;;;;;2.33;0.70;;;;;;;;;;5041322;28;92817;-49
2022/07/25 08:45:33;;;;;;;0.90;0.90;;;;;;;;;;5041709;28;92885;-49
2022/07/25 08:48:01;;;;;;;2.63;0.70;;;;;;;;;;5041920;28;92061;-49
2022/07/25 08:50:30;;;;;;;1.50;0.83;;;;;;;;;;5040549;28;93385;-49
2022/07/25 08:52:58;;;;;;;0.90;0.60;;;;;;;;;;5041073;28;92882;-49
2022/07/25 08:55:46;;;;;;;1.07;0.60;;;;;;;;;;5041593;28;92045;-49
2022/07/25 08:58:16;;;;;;;1.10;0.60;;;;;;;;;;5040558;28;92173;-48
2022/07/25 09:00:45;;;;;;;0.67;0.40;;;;;;;;;;5040601;28;93153;-48
2022/07/25 09:03:13;;;;;;;0.93;0.70;;;;;;;;;;5041434;28;91313;-48
2022/07/25 09:05:43;;;;;;;2.03;0.77;;;;;;;;;;5041209;28;92144;-50
2022/07/25 09:08:12;;;;;;;1.30;0.40;;;;;;;;;;5041659;28;92040;-48
2022/07/25 09:10:42;;;;;;;0.80;0.57;;;;;;;;;;5039616;28;94116;-48
2022/07/25 09:13:12;;;;;;;0.73;0.50;;;;;;;;;;5041053;28;92569;-51
2022/07/25 09:15:44;;;;;;;0.50;0.43;;;;;;;;;;5041550;28;91903;-48
2022/07/25 09:18:14;;;;;;;0.83;0.67;;;;;;;;;;5041793;28;91981;-48
2022/07/25 09:20:44;;;;;;;1.50;0.73;;;;;;;;;;5040003;28;93222;-48
2022/07/25 09:23:13;;;;;;;1.20;0.60;;;;;;;;;;5040982;28;94039;-48
2022/07/25 09:25:41;;;;;;;0.73;0.50;;;;;;;;;;5041313;28;91983;-49
2022/07/25 09:28:13;;;;;;;1.10;0.70;;;;;;;;;;5041780;28;91375;-49
2022/07/25 09:30:53;;;;;;;2.07;0.67;;;;;;;;;;5039947;28;94273;-49
2022/07/25 09:33:22;;;;;;;1.00;0.90;;;;;;;;;;5040924;28;93464;-48
2022/07/25 09:35:50;;;;;;;0.40;0.40;;;;;;;;;;5040234;28;93032;-48
2022/07/25 09:38:18;;;;;;;0.67;0.50;;;;;;;;;;5040648;28;92115;-49
2022/07/25 09:40:56;;;;;;;0.70;0.60;;;;;;;;;;5039599;28;93234;-49
2022/07/25 09:43:25;;;;;;;0.50;0.50;;;;;;;;;;5040228;28;93745;-49
2022/07/25 09:45:57;;;;;;;0.60;0.40;;;;;;;;;;5039271;28;92127;-49
2022/07/25 09:48:26;;;;;;;1.10;0.60;;;;;;;;;;5040523;28;92922;-49
2022/07/25 09:50:54;;;;;;;1.07;0.70;;;;;;;;;;5040719;28;94101;-50
2022/07/25 09:53:22;;;;;;;1.67;0.83;;;;;;;;;;5040841;28;92886;-49
2022/07/25 09:55:52;;;;;;;0.40;0.40;;;;;;;;;;5040032;28;92208;-49
2022/07/25 09:58:20;;;;;;;0.50;0.50;;;;;;;;;;5040608;28;91938;-48
2022/07/25 10:00:48;;;;;;;0.53;0.50;;;;;;;;;;5039720;28;95181;-49
2022/07/25 10:03:19;;;;;;;0.87;0.43;;;;;;;;;;5039936;28;94809;-48
2022/07/25 10:05:53;;;;;;;0.83;0.70;;;;;;;;;;5040762;28;92871;-49
2022/07/25 10:08:22;;;;;;;1.07;0.80;;;;;;;;;;5040607;28;92092;-49
2022/07/25 10:10:50;;;;;;;0.63;0.33;;;;;;;;;;5039466;28;93279;-49
2022/07/25 10:13:29;;;;;;;0.57;0.50;;;;;;;;;;5039989;28;94063;-49
2022/07/25 10:15:57;;;;;;;2.37;0.70;;;;;;;;;;5039845;28;92078;-49
2022/07/25 10:18:27;;;;;;;0.40;0.30;;;;;;;;;;5040448;28;91407;-48
2022/07/25 10:20:56;;;;;;;1.13;0.57;;;;;;;;;;5040037;28;94227;-49
2022/07/25 10:23:25;;;;;;;0.40;0.40;;;;;;;;;;5040015;28;92789;-49
2022/07/25 10:26:03;;;;;;;1.87;0.53;;;;;;;;;;5039690;28;93094;-49
2022/07/25 10:28:41;;;;;;;0.97;0.50;;;;;;;;;;5040044;28;92024;-49
2022/07/25 10:31:16;;;;;;;0.43;0.43;;;;;;;;;;5039081;28;93317;-50
2022/07/25 10:33:47;;;;;;;0.73;0.60;;;;;;;;;;5039723;28;92911;-49
2022/07/25 10:36:16;;;;;;;0.40;0.40;;;;;;;;;;5040034;28;91743;-49
2022/07/25 10:38:46;;;;;;;0.30;0.30;;;;;;;;;;5040258;28;92084;-49
2022/07/25 10:41:15;;;;;;;0.80;0.50;;;;;;;;;;5039722;28;94125;-49
2022/07/25 10:43:45;;;;;;;0.70;0.57;;;;;;;;;;5039962;28;92809;-48
2022/07/25 10:46:18;;;;;;;0.93;0.50;;;;;;;;;;5040006;28;92065;-49
2022/07/25 10:48:57;;;;;;;0.50;0.50;;;;;;;;;;5039992;28;92057;-49
2022/07/25 10:51:26;;;;;;;0.73;0.57;;;;;;;;;;5039283;28;94042;-49
2022/07/25 10:53:55;;;;;;;1.03;0.47;;;;;;;;;;5038658;28;94942;-49
2022/07/25 10:56:23;;;;;;;0.53;0.50;;;;;;;;;;5039593;28;92001;-49
2022/07/25 10:58:52;;;;;;;0.40;0.40;;;;;;;;;;5040404;28;92693;-49
2022/07/25 11:01:21;;;;;;;1.50;0.63;;;;;;;;;;5038614;28;93154;-49
2022/07/25 11:03:51;;;;;;;0.40;0.40;;;;;;;;;;5039464;28;92643;-49
2022/07/25 11:06:29;;;;;;;0.70;0.70;;;;;;;;;;5039826;28;91987;-49
2022/07/25 11:08:59;;;;;;;2.17;0.77;;;;;;;;;;5039937;28;91323;-49
2022/07/25 11:11:34;;;;;;;0.70;0.60;;;;;;;;;;5037774;28;94442;-49
2022/07/25 11:14:03;;;;;;;0.63;0.63;;;;;;;;;;5038990;28;93905;-50
2022/07/25 11:16:31;;;;;;;0.73;0.70;;;;;;;;;;5039393;28;92994;-49
2022/07/25 11:19:01;;;;;;;1.13;0.50;;;;;;;;;;5039572;28;92034;-50
2022/07/25 11:21:29;;;;;;;1.07;0.83;;;;;;;;;;5039017;28;93118;-49
2022/07/25 11:23:58;;;;;;;2.37;0.50;;;;;;;;;;5038039;28;94006;-50
2022/07/25 11:26:26;;;;;;;0.83;0.60;;;;;;;;;;5038815;28;91999;-51
2022/07/25 11:28:54;;;;;;;1.20;0.70;;;;;;;;;;5039319;28;92100;-49
2022/07/25 11:31:23;;;;;;;2.03;0.70;;;;;;;;;;5038917;28;94207;-49
2022/07/25 11:33:51;;;;;;;1.47;0.80;;;;;;;;;;5039120;28;94103;-49
2022/07/25 11:36:21;;;;;;;1.07;0.60;;;;;;;;;;5039088;28;92003;-49
2022/07/25 11:38:49;;;;;;;1.60;0.87;;;;;;;;;;5039312;28;92405;-49
2022/07/25 11:41:28;;;;;;;1.23;0.83;;;;;;;;;;5038007;28;94162;-49
2022/07/25 11:43:56;;;;;;;1.07;0.80;;;;;;;;;;5039005;28;93628;-49
2022/07/25 11:46:24;;;;;;;2.60;1.13;;;;;;;;;;5039439;28;91986;-49
2022/07/25 11:48:53;;;;;;;2.30;1.63;;;;;;;;;;5039073;28;91985;-49
2022/07/25 11:51:23;;;;;;;2.13;1.00;;;;;;;;;;5037686;28;93124;-49
2022/07/25 11:53:51;;;;;;;1.37;0.90;;;;;;;;;;5042025;27;93854;-50
2022/07/25 11:56:20;;;;;;;2.27;1.10;;;;;;;;;;5045177;28;92118;-49
2022/07/25 11:59:08;;;;;;;2.03;1.30;;;;;;;;;;5045808;28;91202;-49
2022/07/25 12:01:38;;;;;;;2.33;1.23;;;;;;;;;;5044596;28;94228;-49
2022/07/25 12:04:10;;;;;;;3.37;0.93;;;;;;;;;;5045621;28;92789;-49
2022/07/25 12:06:40;;;;;;;2.70;1.30;;;;;;;;;;5045047;28;92941;-49
2022/07/25 12:09:12;;;;;;;1.30;0.90;;;;;;;;;;5045666;28;91952;-49
2022/07/25 12:11:45;;;;;;;3.20;1.20;;;;;;;;;;5044270;28;94124;-49
2022/07/25 12:14:14;;;;;;;1.43;0.90;;;;;;;;;;5045045;28;93723;-49
2022/07/25 12:16:42;;;;;;;1.97;0.90;;;;;;;;;;5045468;28;92101;-49
2022/07/25 12:19:18;;;;;;;1.93;1.00;;;;;;;;;;5045542;28;92082;-49
2022/07/25 12:21:48;;;;;;;3.40;1.00;;;;;;;;;;5045368;28;92849;-49
2022/07/25 12:24:16;;;;;;;3.90;1.10;;;;;;;;;;5045433;28;92569;-49
2022/07/25 12:26:45;;;;;;;0.90;0.80;;;;;;;;;;5045160;28;92128;-49
2022/07/25 12:29:13;;;;;;;2.00;1.00;;;;;;;;;;5045316;28;91928;-49
2022/07/25 12:31:41;;;;;;;2.23;1.17;;;;;;;;;;5044401;28;94135;-49
2022/07/25 12:34:09;;;;;;;1.47;0.97;;;;;;;;;;5044880;28;93715;-49
2022/07/25 12:36:42;;;;;;;1.53;0.90;;;;;;;;;;5045531;28;92027;-49
2022/07/25 12:39:12;;;;;;;1.03;0.57;;;;;;;;;;5045348;28;92036;-50
2022/07/25 12:41:41;;;;;;;2.93;1.00;;;;;;;;;;5044750;28;93296;-49
2022/07/25 12:44:10;;;;;;;2.83;1.10;;;;;;;;;;5043871;28;94082;-49
2022/07/25 12:46:40;;;;;;;2.13;0.67;;;;;;;;;;5044774;28;92111;-49
2022/07/25 12:49:16;;;;;;;2.10;0.90;;;;;;;;;;5045035;28;91291;-50
2022/07/25 12:51:45;;;;;;;1.80;0.70;;;;;;;;;;5044686;28;93294;-49
2022/07/25 12:54:16;;;;;;;2.43;1.23;;;;;;;;;;5044805;28;94086;-49
2022/07/25 12:56:49;;;;;;;1.23;0.73;;;;;;;;;;5043935;28;92881;-49
2022/07/25 12:59:17;;;;;;;1.00;0.80;;;;;;;;;;5044599;28;92092;-49
2022/07/25 13:01:46;;;;;;;0.73;0.70;;;;;;;;;;5044101;28;93204;-49
2022/07/25 13:04:14;;;;;;;0.90;0.63;;;;;;;;;;5044577;27;92680;-49
2022/07/25 13:06:43;;;;;;;3.47;0.80;;;;;;;;;;5040687;28;92096;-49
2022/07/25 13:09:11;;;;;;;1.10;0.90;;;;;;;;;;5041489;28;91945;-49
2022/07/25 13:11:41;;;;;;;1.90;0.60;;;;;;;;;;5040668;28;94169;-49
2022/07/25 13:14:09;;;;;;;3.40;0.60;;;;;;;;;;5041109;28;92906;-50
2022/07/25 13:16:37;;;;;;;1.70;0.50;;;;;;;;;;5040976;28;92006;-49
2022/07/25 13:19:06;;;;;;;1.23;0.57;;;;;;;;;;5041412;28;92029;-49
2022/07/25 13:21:36;;;;;;;0.67;0.60;;;;;;;;;;5040341;28;94186;-48
2022/07/25 13:24:05;;;;;;;1.73;0.67;;;;;;;;;;5040758;28;94912;-49
2022/07/25 13:26:34;;;;;;;0.60;0.40;;;;;;;;;;5041614;28;92047;-50
2022/07/25 13:29:07;;;;;;;1.87;0.80;;;;;;;;;;5041102;28;92963;-50
2022/07/25 13:31:36;;;;;;;0.90;0.50;;;;;;;;;;5040528;28;93229;-50
2022/07/25 13:34:05;;;;;;;2.03;1.57;;;;;;;;;;5040656;28;93795;-50
2022/07/25 13:36:33;;;;;;;1.17;0.70;;;;;;;;;;5041815;28;91945;-50
2022/07/25 13:39:02;;;;;;;2.43;0.83;;;;;;;;;;5041141;28;91335;-49
2022/07/25 13:41:30;;;;;;;0.67;0.67;;;;;;;;;;5040379;28;93193;-49
2022/07/25 13:43:59;;;;;;;1.10;0.60;;;;;;;;;;5039190;28;94039;-49
2022/07/25 13:46:28;;;;;;;1.90;1.20;;;;;;;;;;5040285;28;93010;-50
2022/07/25 13:48:57;;;;;;;1.57;1.03;;;;;;;;;;5040090;28;92776;-49
2022/07/25 13:51:25;;;;;;;3.63;1.67;;;;;;;;;;5040079;28;93073;-49
2022/07/25 13:53:53;;;;;;;2.50;1.13;;;;;;;;;;5039756;28;93904;-49
2022/07/25 13:56:22;;;;;;;3.03;1.50;;;;;;;;;;5039705;28;91929;-49
2022/07/25 13:58:50;;;;;;;2.60;1.30;;;;;;;;;;5040737;28;92093;-49
2022/07/25 14:01:18;;;;;;;2.00;1.33;;;;;;;;;;5039836;28;93202;-49
2022/07/25 14:03:48;;;;;;;2.00;1.13;;;;;;;;;;5039768;28;94013;-49
2022/07/25 14:06:16;;;;;;;3.60;1.40;;;;;;;;;;5039927;28;92486;-49
2022/07/25 14:08:45;;;;;;;2.87;1.70;;;;;;;;;;5037773;28;92159;-49
2022/07/25 14:11:13;;;;;;;2.30;1.27;;;;;;;;;;5039185;28;94109;-49
2022/07/25 14:13:42;;;;;;;3.87;1.60;;;;;;;;;;5039681;28;93730;-50
2022/07/25 14:16:12;;;;;;;2.23;1.30;;;;;;;;;;5040318;28;91864;-49
2022/07/25 14:18:41;;;;;;;1.63;0.87;;;;;;;;;;5040427;28;92061;-49
2022/07/25 14:21:11;;;;;;;3.07;1.43;;;;;;;;;;5039980;28;93240;-49
2022/07/25 14:23:39;;;;;;;1.53;1.20;;;;;;;;;;5039663;28;92780;-49
2022/07/25 14:26:07;;;;;;;4.90;1.50;;;;;;;;;;5039901;28;92097;-49
2022/07/25 14:28:36;;;;;;;2.47;1.60;;;;;;;;;;5039111;28;91418;-49
2022/07/25 14:31:04;;;;;;;2.27;1.33;;;;;;;;;;5039527;28;94122;-49
2022/07/25 14:33:36;;;;;;;3.90;1.40;;;;;;;;;;5038855;28;93940;-49
2022/07/25 14:36:05;;;;;;;5.93;1.67;;;;;;;;;;5039084;28;92866;-49
2022/07/25 14:38:34;;;;;;;2.63;1.77;;;;;;;;;;5039266;28;92092;-49
2022/07/25 14:41:03;;;;;;;1.57;1.30;;;;;;;;;;5039391;28;92005;-49
2022/07/25 14:43:39;;;;;;;2.60;1.33;;;;;;;;;;5039099;28;92764;-49
2022/07/25 14:46:07;;;;;;;1.27;0.90;;;;;;;;;;5039707;28;92054;-49
2022/07/25 14:48:36;;;;;;;2.83;1.30;;;;;;;;;;5040315;28;92178;-49
2022/07/25 14:51:05;;;;;;;2.87;1.23;;;;;;;;;;5039217;28;93330;-49
2022/07/25 14:53:35;;;;;;;3.63;1.40;;;;;;;;;;5039767;28;93871;-49
2022/07/25 14:56:03;;;;;;;3.40;0.87;;;;;;;;;;5039294;28;92035;-49
2022/07/25 14:58:32;;;;;;;6.17;1.43;;;;;;;;;;5038242;28;92176;-49